sensor_id;sensor_type;location;lat;lon;timestamp;pressure;altitude;pressure_sealevel;temperature;humidity
20971;BME280;10644;48.834;10.088;2023-02-11T00:02:17;98655.94;;;4.13;45.96
20971;BME280;10644;48.834;10.088;2023-02-11T00:04:42;98650.00;;;4.05;45.58
20971;BME280;10644;48.834;10.088;2023-02-11T00:07:16;98646.63;;;4.03;45.38
20971;BME280;10644;48.834;10.088;2023-02-11T00:09:42;98641.53;;;3.98;45.84
20971;BME280;10644;48.834;10.088;2023-02-11T00:12:23;98633.94;;;3.94;45.16
20971;BME280;10644;48.834;10.088;2023-02-11T00:14:58;98633.88;;;3.89;46.19
20971;BME280;10644;48.834;10.088;2023-02-11T00:17:53;98649.09;;;3.86;45.53
20971;BME280;10644;48.834;10.088;2023-02-11T00:20:21;98652.47;;;3.88;45.87
20971;BME280;10644;48.834;10.088;2023-02-11T00:22:53;98647.44;;;3.91;45.60
20971;BME280;10644;48.834;10.088;2023-02-11T00:25:29;98649.16;;;3.98;45.97
20971;BME280;10644;48.834;10.088;2023-02-11T00:27:57;98642.41;;;4.03;46.27
20971;BME280;10644;48.834;10.088;2023-02-11T00:30:32;98639.88;;;4.09;45.49
20971;BME280;10644;48.834;10.088;2023-02-11T00:32:57;98637.34;;;4.03;46.15
20971;BME280;10644;48.834;10.088;2023-02-11T00:35:30;98625.44;;;3.90;46.59
20971;BME280;10644;48.834;10.088;2023-02-11T00:37:59;98622.88;;;3.80;46.94
20971;BME280;10644;48.834;10.088;2023-02-11T00:40:52;98613.59;;;3.74;46.64
20971;BME280;10644;48.834;10.088;2023-02-11T00:46:30;98623.31;;;3.05;49.57
20971;BME280;10644;48.834;10.088;2023-02-11T00:49:08;98613.63;;;2.49;51.46
20971;BME280;10644;48.834;10.088;2023-02-11T00:51:43;98625.38;;;2.44;51.09
20971;BME280;10644;48.834;10.088;2023-02-11T00:54:15;98619.56;;;2.54;50.71
20971;BME280;10644;48.834;10.088;2023-02-11T00:56:42;98616.28;;;2.62;51.27
20971;BME280;10644;48.834;10.088;2023-02-11T00:59:10;98610.47;;;2.78;50.41
20971;BME280;10644;48.834;10.088;2023-02-11T01:01:38;98610.47;;;2.75;49.82
20971;BME280;10644;48.834;10.088;2023-02-11T01:04:04;98611.47;;;2.95;49.70
20971;BME280;10644;48.834;10.088;2023-02-11T01:06:51;98608.22;;;3.16;48.91
20971;BME280;10644;48.834;10.088;2023-02-11T01:09:37;98606.56;;;3.19;48.51
20971;BME280;10644;48.834;10.088;2023-02-11T01:12:11;98601.56;;;3.31;48.36
20971;BME280;10644;48.834;10.088;2023-02-11T01:14:44;98594.00;;;3.37;48.21
20971;BME280;10644;48.834;10.088;2023-02-11T01:17:13;98586.44;;;3.46;48.34
20971;BME280;10644;48.834;10.088;2023-02-11T01:19:52;98585.63;;;3.52;47.52
20971;BME280;10644;48.834;10.088;2023-02-11T01:22:18;98565.31;;;3.41;49.51
20971;BME280;10644;48.834;10.088;2023-02-11T01:24:49;98567.91;;;3.56;48.28
20971;BME280;10644;48.834;10.088;2023-02-11T01:27:17;98542.59;;;3.59;47.96
20971;BME280;10644;48.834;10.088;2023-02-11T01:29:44;98544.25;;;3.54;47.51
20971;BME280;10644;48.834;10.088;2023-02-11T01:32:12;98551.00;;;3.51;47.87
20971;BME280;10644;48.834;10.088;2023-02-11T01:34:37;98534.91;;;3.43;47.90
20971;BME280;10644;48.834;10.088;2023-02-11T01:37:07;98538.34;;;3.54;47.72
20971;BME280;10644;48.834;10.088;2023-02-11T01:39:38;98534.13;;;3.54;47.03
20971;BME280;10644;48.834;10.088;2023-02-11T01:42:18;98540.09;;;3.67;46.88
20971;BME280;10644;48.834;10.088;2023-02-11T01:44:48;98530.81;;;3.70;47.10
20971;BME280;10644;48.834;10.088;2023-02-11T01:47:22;98529.94;;;3.68;46.75
20971;BME280;10644;48.834;10.088;2023-02-11T01:49:58;98546.84;;;3.71;46.43
20971;BME280;10644;48.834;10.088;2023-02-11T01:52:34;98540.06;;;3.68;46.49
20971;BME280;10644;48.834;10.088;2023-02-11T01:55:04;98551.06;;;3.66;46.65
20971;BME280;10644;48.834;10.088;2023-02-11T01:57:54;98550.13;;;3.44;46.36
20971;BME280;10644;48.834;10.088;2023-02-11T02:00:33;98552.63;;;3.38;46.57
20971;BME280;10644;48.834;10.088;2023-02-11T02:03:29;98558.53;;;3.37;46.81
20971;BME280;10644;48.834;10.088;2023-02-11T02:06:04;98557.63;;;3.20;47.01
20971;BME280;10644;48.834;10.088;2023-02-11T02:11:48;98564.38;;;3.21;47.56
20971;BME280;10644;48.834;10.088;2023-02-11T02:14:17;98572.88;;;3.32;47.16
20971;BME280;10644;48.834;10.088;2023-02-11T02:16:53;98550.06;;;3.32;46.94
20971;BME280;10644;48.834;10.088;2023-02-11T02:35:33;98532.44;;;3.49;46.76
20971;BME280;10644;48.834;10.088;2023-02-11T02:41:45;98532.41;;;3.50;46.91
20971;BME280;10644;48.834;10.088;2023-02-11T02:44:14;98512.13;;;3.43;47.12
20971;BME280;10644;48.834;10.088;2023-02-11T02:46:39;98513.84;;;3.42;47.35
20971;BME280;10644;48.834;10.088;2023-02-11T02:49:14;98515.53;;;3.46;47.29
20971;BME280;10644;48.834;10.088;2023-02-11T03:01:41;98506.59;;;2.50;50.68
20971;BME280;10644;48.834;10.088;2023-02-11T03:10:29;98492.38;;;2.65;50.12
20971;BME280;10644;48.834;10.088;2023-02-11T03:13:05;98499.19;;;2.80;50.05
20971;BME280;10644;48.834;10.088;2023-02-11T03:15:36;98494.19;;;2.92;50.46
20971;BME280;10644;48.834;10.088;2023-02-11T03:18:08;98477.38;;;3.00;50.84
20971;BME280;10644;48.834;10.088;2023-02-11T03:20:47;98485.00;;;3.04;49.94
20971;BME280;10644;48.834;10.088;2023-02-11T03:23:28;98482.44;;;2.98;51.03
20971;BME280;10644;48.834;10.088;2023-02-11T03:32:09;98494.22;;;1.81;54.71
20971;BME280;10644;48.834;10.088;2023-02-11T03:34:52;98498.63;;;2.00;55.55
20971;BME280;10644;48.834;10.088;2023-02-11T03:37:39;98502.31;;;2.44;53.52
20971;BME280;10644;48.834;10.088;2023-02-11T03:40:09;98513.13;;;2.22;54.92
20971;BME280;10644;48.834;10.088;2023-02-11T03:42:57;98504.94;;;2.50;52.94
20971;BME280;10644;48.834;10.088;2023-02-11T03:45:26;98518.56;;;2.76;52.64
20971;BME280;10644;48.834;10.088;2023-02-11T03:47:56;98519.47;;;2.83;52.80
20971;BME280;10644;48.834;10.088;2023-02-11T03:50:26;98516.88;;;2.75;53.25
20971;BME280;10644;48.834;10.088;2023-02-11T03:52:58;98510.19;;;2.86;51.94
20971;BME280;10644;48.834;10.088;2023-02-11T03:55:27;98522.06;;;2.99;52.00
20971;BME280;10644;48.834;10.088;2023-02-11T03:58:02;98511.97;;;3.01;51.95
20971;BME280;10644;48.834;10.088;2023-02-11T04:00:30;98517.94;;;3.16;51.82
20971;BME280;10644;48.834;10.088;2023-02-11T04:02:59;98530.66;;;3.28;51.52
20971;BME280;10644;48.834;10.088;2023-02-11T04:05:31;98528.13;;;3.34;51.20
20971;BME280;10644;48.834;10.088;2023-02-11T04:08:08;98528.19;;;3.45;50.77
20971;BME280;10644;48.834;10.088;2023-02-11T04:10:47;98518.91;;;3.48;50.48
20971;BME280;10644;48.834;10.088;2023-02-11T04:13:13;98512.13;;;3.38;51.36
20971;BME280;10644;48.834;10.088;2023-02-11T04:15:39;98512.16;;;3.44;51.25
20971;BME280;10644;48.834;10.088;2023-02-11T04:18:04;98502.06;;;3.49;51.05
20971;BME280;10644;48.834;10.088;2023-02-11T04:23:29;98512.97;;;3.33;51.72
20971;BME280;10644;48.834;10.088;2023-02-11T04:25:56;98507.06;;;3.38;51.71
20971;BME280;10644;48.834;10.088;2023-02-11T04:28:40;98507.97;;;3.52;50.97
20971;BME280;10644;48.834;10.088;2023-02-11T04:31:07;98501.22;;;3.56;51.24
20971;BME280;10644;48.834;10.088;2023-02-11T04:33:37;98509.66;;;3.59;51.43
20971;BME280;10644;48.834;10.088;2023-02-11T04:36:07;98515.34;;;3.03;52.95
20971;BME280;10644;48.834;10.088;2023-02-11T04:38:41;98523.72;;;2.90;53.31
20971;BME280;10644;48.834;10.088;2023-02-11T04:41:20;98518.72;;;3.06;52.43
20971;BME280;10644;48.834;10.088;2023-02-11T04:43:54;98506.91;;;3.05;52.56
20971;BME280;10644;48.834;10.088;2023-02-11T04:46:21;98496.84;;;3.14;52.32
20971;BME280;10644;48.834;10.088;2023-02-11T04:48:46;98491.75;;;3.11;52.72
20971;BME280;10644;48.834;10.088;2023-02-11T04:51:16;98493.50;;;3.18;52.54
20971;BME280;10644;48.834;10.088;2023-02-11T04:53:49;98494.34;;;3.23;52.97
20971;BME280;10644;48.834;10.088;2023-02-11T04:56:30;98481.72;;;3.32;52.41
20971;BME280;10644;48.834;10.088;2023-02-11T04:58:57;98493.59;;;3.44;53.00
20971;BME280;10644;48.834;10.088;2023-02-11T05:01:41;98496.06;;;3.29;53.43
20971;BME280;10644;48.834;10.088;2023-02-11T05:04:07;98500.13;;;2.92;55.31
20971;BME280;10644;48.834;10.088;2023-02-11T05:06:32;98501.78;;;2.87;55.66
20971;BME280;10644;48.834;10.088;2023-02-11T05:09:02;98495.13;;;3.07;54.28
20971;BME280;10644;48.834;10.088;2023-02-11T05:11:31;98485.06;;;3.22;54.51
20971;BME280;10644;48.834;10.088;2023-02-11T05:14:05;98485.16;;;3.46;53.45
20971;BME280;10644;48.834;10.088;2023-02-11T05:16:33;98485.19;;;3.61;52.57
20971;BME280;10644;48.834;10.088;2023-02-11T05:19:12;98464.97;;;3.72;52.26
20971;BME280;10644;48.834;10.088;2023-02-11T05:21:52;98464.97;;;3.91;51.90
20971;BME280;10644;48.834;10.088;2023-02-11T05:24:40;98451.47;;;3.98;51.87
20971;BME280;10644;48.834;10.088;2023-02-11T05:27:05;98443.88;;;3.94;51.94
20971;BME280;10644;48.834;10.088;2023-02-11T05:29:31;98456.50;;;4.01;52.03
20971;BME280;10644;48.834;10.088;2023-02-11T05:31:58;98458.22;;;4.08;51.75
20971;BME280;10644;48.834;10.088;2023-02-11T05:34:26;98461.59;;;4.07;51.94
20971;BME280;10644;48.834;10.088;2023-02-11T05:36:53;98464.97;;;4.12;52.15
20971;BME280;10644;48.834;10.088;2023-02-11T05:39:35;98459.91;;;4.17;51.37
20971;BME280;10644;48.834;10.088;2023-02-11T05:45:36;98461.56;;;4.33;51.54
20971;BME280;10644;48.834;10.088;2023-02-11T05:48:04;98444.69;;;4.36;51.54
20971;BME280;10644;48.834;10.088;2023-02-11T05:50:51;98453.94;;;4.46;51.14
20971;BME280;10644;48.834;10.088;2023-02-11T05:53:36;98453.13;;;4.44;51.11
20971;BME280;10644;48.834;10.088;2023-02-11T05:56:01;98435.38;;;4.46;51.83
20971;BME280;10644;48.834;10.088;2023-02-11T05:58:27;98441.31;;;4.37;52.77
20971;BME280;10644;48.834;10.088;2023-02-11T06:00:55;98431.16;;;4.34;52.55
20971;BME280;10644;48.834;10.088;2023-02-11T06:03:31;98431.16;;;4.34;52.27
20971;BME280;10644;48.834;10.088;2023-02-11T06:05:59;98426.91;;;4.41;51.78
20971;BME280;10644;48.834;10.088;2023-02-11T06:08:37;98436.19;;;4.46;51.55
20971;BME280;10644;48.834;10.088;2023-02-11T06:11:10;98445.56;;;4.22;52.56
20971;BME280;10644;48.834;10.088;2023-02-11T06:13:43;98459.03;;;4.13;52.52
20971;BME280;10644;48.834;10.088;2023-02-11T06:16:09;98464.97;;;4.18;52.98
20971;BME280;10644;48.834;10.088;2023-02-11T06:19:04;98453.97;;;4.34;52.28
20971;BME280;10644;48.834;10.088;2023-02-11T06:21:32;98456.50;;;4.34;52.89
20971;BME280;10644;48.834;10.088;2023-02-11T06:23:59;98463.25;;;4.44;52.60
20971;BME280;10644;48.834;10.088;2023-02-11T06:26:44;98460.72;;;4.58;52.00
20971;BME280;10644;48.834;10.088;2023-02-11T06:29:09;98454.78;;;4.60;51.91
20971;BME280;10644;48.834;10.088;2023-02-11T06:32:10;98461.53;;;4.52;52.99
20971;BME280;10644;48.834;10.088;2023-02-11T06:34:39;98448.00;;;4.62;52.66
20971;BME280;10644;48.834;10.088;2023-02-11T06:37:21;98452.22;;;4.72;51.82
20971;BME280;10644;48.834;10.088;2023-02-11T06:39:59;98454.75;;;4.81;51.56
20971;BME280;10644;48.834;10.088;2023-02-11T06:42:31;98463.19;;;4.77;52.18
20971;BME280;10644;48.834;10.088;2023-02-11T06:45:04;98469.13;;;4.72;52.42
20971;BME280;10644;48.834;10.088;2023-02-11T06:47:45;98464.09;;;4.52;52.54
20971;BME280;10644;48.834;10.088;2023-02-11T06:50:15;98466.59;;;4.58;52.88
20971;BME280;10644;48.834;10.088;2023-02-11T06:52:41;98461.56;;;4.64;52.62
20971;BME280;10644;48.834;10.088;2023-02-11T06:55:08;98450.53;;;4.73;52.33
20971;BME280;10644;48.834;10.088;2023-02-11T06:57:57;98453.00;;;4.86;51.97
20971;BME280;10644;48.834;10.088;2023-02-11T07:00:23;98449.63;;;4.90;52.02
20971;BME280;10644;48.834;10.088;2023-02-11T07:02:56;98449.59;;;4.98;51.98
20971;BME280;10644;48.834;10.088;2023-02-11T07:05:21;98451.31;;;4.94;52.52
20971;BME280;10644;48.834;10.088;2023-02-11T07:07:48;98454.66;;;5.02;52.01
20971;BME280;10644;48.834;10.088;2023-02-11T07:10:16;98452.97;;;5.01;52.18
20971;BME280;10644;48.834;10.088;2023-02-11T07:12:55;98458.94;;;4.90;52.60
20971;BME280;10644;48.834;10.088;2023-02-11T07:15:37;98458.13;;;4.74;53.44
20971;BME280;10644;48.834;10.088;2023-02-11T07:18:33;98462.31;;;4.84;52.85
20971;BME280;10644;48.834;10.088;2023-02-11T07:21:11;98458.09;;;4.86;53.16
20971;BME280;10644;48.834;10.088;2023-02-11T07:23:37;98447.94;;;4.89;52.77
20971;BME280;10644;48.834;10.088;2023-02-11T07:26:10;98447.88;;;5.03;52.74
20971;BME280;10644;48.834;10.088;2023-02-11T07:28:41;98446.16;;;5.12;53.13
20971;BME280;10644;48.834;10.088;2023-02-11T07:31:41;98446.94;;;5.25;52.57
20971;BME280;10644;48.834;10.088;2023-02-11T07:34:06;98448.63;;;5.23;52.65
20971;BME280;10644;48.834;10.088;2023-02-11T07:36:37;98460.47;;;5.28;52.58
20971;BME280;10644;48.834;10.088;2023-02-11T07:39:08;98460.47;;;5.27;52.68
20971;BME280;10644;48.834;10.088;2023-02-11T07:41:43;98464.75;;;5.14;52.54
20971;BME280;10644;48.834;10.088;2023-02-11T07:44:19;98456.28;;;5.18;52.65
20971;BME280;10644;48.834;10.088;2023-02-11T07:47:09;98459.63;;;5.29;52.61
20971;BME280;10644;48.834;10.088;2023-02-11T07:49:45;98457.94;;;5.28;52.05
20971;BME280;10644;48.834;10.088;2023-02-11T07:52:15;98454.56;;;5.26;52.18
20971;BME280;10644;48.834;10.088;2023-02-11T07:54:49;98461.34;;;5.24;52.24
20971;BME280;10644;48.834;10.088;2023-02-11T07:57:17;98447.78;;;5.28;52.43
20971;BME280;10644;48.834;10.088;2023-02-11T07:59:57;98446.88;;;5.37;52.29
20971;BME280;10644;48.834;10.088;2023-02-11T08:02:29;98449.34;;;5.47;52.32
20971;BME280;10644;48.834;10.088;2023-02-11T08:05:01;98456.94;;;5.55;51.66
20971;BME280;10644;48.834;10.088;2023-02-11T08:07:45;98462.81;;;5.67;51.71
20971;BME280;10644;48.834;10.088;2023-02-11T08:10:14;98457.81;;;5.55;52.00
20971;BME280;10644;48.834;10.088;2023-02-11T08:12:52;98462.03;;;5.55;51.89
20971;BME280;10644;48.834;10.088;2023-02-11T08:15:21;98468.78;;;5.57;52.59
20971;BME280;10644;48.834;10.088;2023-02-11T08:17:55;98465.47;;;5.49;52.15
20971;BME280;10644;48.834;10.088;2023-02-11T08:20:50;98459.41;;;5.68;51.97
20971;BME280;10644;48.834;10.088;2023-02-11T08:23:17;98466.13;;;5.81;51.65
20971;BME280;10644;48.834;10.088;2023-02-11T08:26:02;98471.97;;;5.92;51.34
20971;BME280;10644;48.834;10.088;2023-02-11T08:28:29;98462.63;;;5.97;51.21
20971;BME280;10644;48.834;10.088;2023-02-11T08:31:14;98465.94;;;6.08;51.21
20971;BME280;10644;48.834;10.088;2023-02-11T08:33:40;98465.88;;;6.17;51.68
20971;BME280;10644;48.834;10.088;2023-02-11T08:36:14;98451.38;;;6.27;51.23
20971;BME280;10644;48.834;10.088;2023-02-11T08:38:49;98469.13;;;6.34;51.29
20971;BME280;10644;48.834;10.088;2023-02-11T08:41:17;98463.97;;;6.40;50.68
20971;BME280;10644;48.834;10.088;2023-02-11T08:43:59;98474.31;;;6.19;51.59
20971;BME280;10644;48.834;10.088;2023-02-11T08:46:32;98481.13;;;6.19;52.02
20971;BME280;10644;48.834;10.088;2023-02-11T08:49:11;98472.63;;;6.20;51.81
20971;BME280;10644;48.834;10.088;2023-02-11T08:51:54;98456.41;;;6.33;51.78
20971;BME280;10644;48.834;10.088;2023-02-11T08:54:23;98450.31;;;6.50;51.71
20971;BME280;10644;48.834;10.088;2023-02-11T08:57:03;98435.81;;;6.58;51.17
20971;BME280;10644;48.834;10.088;2023-02-11T08:59:51;98436.53;;;6.72;51.13
20971;BME280;10644;48.834;10.088;2023-02-11T09:02:27;98433.06;;;6.78;51.45
20971;BME280;10644;48.834;10.088;2023-02-11T09:04:58;98441.50;;;6.81;51.59
20971;BME280;10644;48.834;10.088;2023-02-11T09:07:54;98445.56;;;6.96;51.12
20971;BME280;10644;48.834;10.088;2023-02-11T09:10:19;98442.13;;;7.00;51.37
20971;BME280;10644;48.834;10.088;2023-02-11T09:13:04;98434.44;;;7.04;51.40
20971;BME280;10644;48.834;10.088;2023-02-11T09:15:48;98425.03;;;7.09;51.39
20971;BME280;10644;48.834;10.088;2023-02-11T09:18:31;98412.44;;;7.00;52.21
20971;BME280;10644;48.834;10.088;2023-02-11T09:21:28;98430.81;;;7.23;52.33
20971;BME280;10644;48.834;10.088;2023-02-11T09:24:12;98418.78;;;7.34;52.36
20971;BME280;10644;48.834;10.088;2023-02-11T09:26:45;98413.72;;;7.31;52.05
20971;BME280;10644;48.834;10.088;2023-02-11T09:29:23;98423.72;;;7.46;51.71
20971;BME280;10644;48.834;10.088;2023-02-11T09:31:48;98420.31;;;7.44;51.95
20971;BME280;10644;48.834;10.088;2023-02-11T09:37:26;98426.03;;;7.61;51.45
20971;BME280;10644;48.834;10.088;2023-02-11T09:43:35;98431.22;;;7.55;52.02
20971;BME280;10644;48.834;10.088;2023-02-11T09:46:04;98435.50;;;7.53;51.67
20971;BME280;10644;48.834;10.088;2023-02-11T09:48:46;98439.91;;;7.42;51.89
20971;BME280;10644;48.834;10.088;2023-02-11T09:57:54;98433.06;;;8.03;51.00
20971;BME280;10644;48.834;10.088;2023-02-11T10:00:30;98435.31;;;8.23;50.70
20971;BME280;10644;48.834;10.088;2023-02-11T10:09:06;98456.63;;;8.20;50.44
20971;BME280;10644;48.834;10.088;2023-02-11T10:18:04;98462.00;;;8.02;51.32
20971;BME280;10644;48.834;10.088;2023-02-11T10:23:24;98466.03;;;8.14;50.97
20971;BME280;10644;48.834;10.088;2023-02-11T10:26:11;98472.72;;;8.24;50.85
20971;BME280;10644;48.834;10.088;2023-02-11T10:32:46;98468.84;;;8.52;49.87
20971;BME280;10644;48.834;10.088;2023-02-11T10:35:23;98451.69;;;8.60;49.97
20971;BME280;10644;48.834;10.088;2023-02-11T10:37:58;98440.84;;;8.93;49.75
20971;BME280;10644;48.834;10.088;2023-02-11T10:40:27;98446.72;;;8.96;49.57
20971;BME280;10644;48.834;10.088;2023-02-11T10:46:03;98432.38;;;9.32;48.65
20971;BME280;10644;48.834;10.088;2023-02-11T10:48:49;98430.09;;;9.59;48.05
20971;BME280;10644;48.834;10.088;2023-02-11T10:54:17;98430.38;;;9.84;46.28
20971;BME280;10644;48.834;10.088;2023-02-11T10:57:05;98432.84;;;9.88;46.93
20971;BME280;10644;48.834;10.088;2023-02-11T10:59:36;98419.66;;;10.05;46.18
20971;BME280;10644;48.834;10.088;2023-02-11T11:02:25;98422.97;;;10.43;46.13
20971;BME280;10644;48.834;10.088;2023-02-11T11:04:58;98418.91;;;10.68;46.08
20971;BME280;10644;48.834;10.088;2023-02-11T11:07:32;98421.22;;;10.45;45.27
20971;BME280;10644;48.834;10.088;2023-02-11T11:10:35;98417.06;;;10.73;45.63
20971;BME280;10644;48.834;10.088;2023-02-11T11:13:23;98417.16;;;10.69;46.29
20971;BME280;10644;48.834;10.088;2023-02-11T11:16:16;98405.97;;;11.03;46.56
20971;BME280;10644;48.834;10.088;2023-02-11T11:18:46;98406.16;;;11.26;45.03
20971;BME280;10644;48.834;10.088;2023-02-11T11:21:45;98394.38;;;11.48;44.30
20971;BME280;10644;48.834;10.088;2023-02-11T11:24:31;98392.31;;;11.61;43.53
20971;BME280;10644;48.834;10.088;2023-02-11T11:27:20;98386.88;;;11.42;43.96
20971;BME280;10644;48.834;10.088;2023-02-11T11:29:52;98393.22;;;11.58;43.66
20971;BME280;10644;48.834;10.088;2023-02-11T11:32:26;98396.97;;;11.47;43.65
20971;BME280;10644;48.834;10.088;2023-02-11T11:34:59;98380.66;;;11.49;44.20
20971;BME280;10644;48.834;10.088;2023-02-11T11:37:36;98383.38;;;11.72;43.64
20971;BME280;10644;48.834;10.088;2023-02-11T11:43:04;98386.84;;;12.23;42.22
20971;BME280;10644;48.834;10.088;2023-02-11T11:45:36;98380.56;;;12.07;41.98
20971;BME280;10644;48.834;10.088;2023-02-11T11:51:13;98367.31;;;12.19;42.98
20971;BME280;10644;48.834;10.088;2023-02-11T11:54:08;98368.19;;;12.43;43.16
20971;BME280;10644;48.834;10.088;2023-02-11T11:56:40;98368.53;;;12.58;42.13
20971;BME280;10644;48.834;10.088;2023-02-11T11:59:32;98383.59;;;12.92;42.25
20971;BME280;10644;48.834;10.088;2023-02-11T12:04:54;98377.16;;;12.57;42.06
20971;BME280;10644;48.834;10.088;2023-02-11T12:16:19;98387.00;;;13.40;41.97
20971;BME280;10644;48.834;10.088;2023-02-11T12:22:20;98384.09;;;13.47;40.93
20971;BME280;10644;48.834;10.088;2023-02-11T12:30:51;98376.81;;;13.58;41.00
20971;BME280;10644;48.834;10.088;2023-02-11T12:35:57;98374.88;;;13.20;41.99
20971;BME280;10644;48.834;10.088;2023-02-11T12:41:44;98359.13;;;13.51;42.05
20971;BME280;10644;48.834;10.088;2023-02-11T12:44:55;98350.63;;;13.47;42.06
20971;BME280;10644;48.834;10.088;2023-02-11T12:56:45;98358.25;;;13.71;42.23
20971;BME280;10644;48.834;10.088;2023-02-11T12:59:20;98350.22;;;13.79;42.27
20971;BME280;10644;48.834;10.088;2023-02-11T13:01:55;98352.28;;;13.71;42.07
20971;BME280;10644;48.834;10.088;2023-02-11T13:04:28;98349.44;;;13.34;43.01
20971;BME280;10644;48.834;10.088;2023-02-11T13:07:02;98337.50;;;13.10;43.22
20971;BME280;10644;48.834;10.088;2023-02-11T13:10:34;98341.53;;;13.17;43.71
20971;BME280;10644;48.834;10.088;2023-02-11T13:12:46;98331.19;;;13.40;43.33
20971;BME280;10644;48.834;10.088;2023-02-11T13:15:32;98342.44;;;13.38;43.58
20971;BME280;10644;48.834;10.088;2023-02-11T13:18:16;98333.47;;;13.26;43.59
20971;BME280;10644;48.834;10.088;2023-02-11T13:33:16;98323.56;;;14.01;43.06
20971;BME280;10644;48.834;10.088;2023-02-11T13:38:33;98316.66;;;14.23;41.83
20971;BME280;10644;48.834;10.088;2023-02-11T13:47:03;98319.53;;;13.09;43.61
20971;BME280;10644;48.834;10.088;2023-02-11T13:49:48;98322.38;;;12.78;44.59
20971;BME280;10644;48.834;10.088;2023-02-11T13:54:49;98323.91;;;12.84;44.23
20971;BME280;10644;48.834;10.088;2023-02-11T14:11:47;98320.38;;;12.63;45.04
20971;BME280;10644;48.834;10.088;2023-02-11T14:14:31;98316.22;;;12.59;45.41
20971;BME280;10644;48.834;10.088;2023-02-11T14:19:44;98328.41;;;12.77;44.21
20971;BME280;10644;48.834;10.088;2023-02-11T14:22:22;98325.38;;;12.66;44.05
20971;BME280;10644;48.834;10.088;2023-02-11T14:24:56;98329.50;;;12.72;44.27
20971;BME280;10644;48.834;10.088;2023-02-11T14:35:54;98323.38;;;12.02;45.11
20971;BME280;10644;48.834;10.088;2023-02-11T14:41:28;98324.50;;;11.68;46.23
20971;BME280;10644;48.834;10.088;2023-02-11T14:44:00;98320.09;;;11.71;46.27
20971;BME280;10644;48.834;10.088;2023-02-11T14:46:35;98324.50;;;11.94;45.84
20971;BME280;10644;48.834;10.088;2023-02-11T14:49:03;98324.31;;;12.00;45.87
20971;BME280;10644;48.834;10.088;2023-02-11T14:51:46;98316.59;;;12.00;45.73
20971;BME280;10644;48.834;10.088;2023-02-11T14:54:27;98320.16;;;11.96;45.86
20971;BME280;10644;48.834;10.088;2023-02-11T14:57:14;98322.00;;;11.92;46.09
20971;BME280;10644;48.834;10.088;2023-02-11T14:59:58;98334.53;;;11.75;46.72
20971;BME280;10644;48.834;10.088;2023-02-11T15:02:36;98333.44;;;11.55;46.98
20971;BME280;10644;48.834;10.088;2023-02-11T15:05:25;98338.22;;;11.39;46.85
20971;BME280;10644;48.834;10.088;2023-02-11T15:07:53;98345.91;;;11.39;47.27
20971;BME280;10644;48.834;10.088;2023-02-11T15:10:37;98348.97;;;11.50;46.89
20971;BME280;10644;48.834;10.088;2023-02-11T15:13:16;98354.56;;;11.37;47.16
20971;BME280;10644;48.834;10.088;2023-02-11T15:15:43;98352.09;;;11.32;47.72
20971;BME280;10644;48.834;10.088;2023-02-11T15:18:36;98357.41;;;11.26;47.87
20971;BME280;10644;48.834;10.088;2023-02-11T15:21:03;98356.84;;;11.44;47.68
20971;BME280;10644;48.834;10.088;2023-02-11T15:23:30;98361.16;;;11.44;47.29
20971;BME280;10644;48.834;10.088;2023-02-11T15:25:59;98359.31;;;11.49;47.55
20971;BME280;10644;48.834;10.088;2023-02-11T15:28:35;98368.13;;;11.40;47.54
20971;BME280;10644;48.834;10.088;2023-02-11T15:31:11;98363.19;;;11.34;48.05
20971;BME280;10644;48.834;10.088;2023-02-11T15:33:42;98359.75;;;11.34;48.12
20971;BME280;10644;48.834;10.088;2023-02-11T15:36:23;98358.91;;;11.62;47.16
20971;BME280;10644;48.834;10.088;2023-02-11T15:41:48;98363.25;;;11.60;47.85
20971;BME280;10644;48.834;10.088;2023-02-11T15:44:32;98363.25;;;11.60;47.75
20971;BME280;10644;48.834;10.088;2023-02-11T15:47:00;98367.41;;;11.64;47.65
20971;BME280;10644;48.834;10.088;2023-02-11T15:49:27;98369.78;;;11.70;47.40
20971;BME280;10644;48.834;10.088;2023-02-11T15:51:59;98364.41;;;11.78;47.01
20971;BME280;10644;48.834;10.088;2023-02-11T15:54:32;98367.47;;;11.61;47.79
20971;BME280;10644;48.834;10.088;2023-02-11T15:57:04;98374.72;;;11.76;47.46
20971;BME280;10644;48.834;10.088;2023-02-11T15:59:40;98375.66;;;11.74;47.22
20971;BME280;10644;48.834;10.088;2023-02-11T16:02:37;98381.53;;;11.77;47.63
20971;BME280;10644;48.834;10.088;2023-02-11T16:05:35;98390.47;;;11.92;46.88
20971;BME280;10644;48.834;10.088;2023-02-11T16:08:34;98391.72;;;11.80;47.62
20971;BME280;10644;48.834;10.088;2023-02-11T16:11:05;98392.97;;;11.67;47.77
20971;BME280;10644;48.834;10.088;2023-02-11T16:13:57;98393.47;;;11.78;46.97
20971;BME280;10644;48.834;10.088;2023-02-11T16:16:28;98392.72;;;11.75;47.38
20971;BME280;10644;48.834;10.088;2023-02-11T16:19:03;98391.25;;;11.68;47.23
20971;BME280;10644;48.834;10.088;2023-02-11T16:21:39;98396.13;;;11.75;47.55
20971;BME280;10644;48.834;10.088;2023-02-11T16:24:20;98401.53;;;11.66;47.71
20971;BME280;10644;48.834;10.088;2023-02-11T16:26:56;98406.41;;;11.75;47.25
20971;BME280;10644;48.834;10.088;2023-02-11T16:29:35;98406.22;;;11.52;47.93
20971;BME280;10644;48.834;10.088;2023-02-11T16:32:14;98406.13;;;11.55;48.22
20971;BME280;10644;48.834;10.088;2023-02-11T16:34:43;98393.84;;;11.66;47.62
20971;BME280;10644;48.834;10.088;2023-02-11T16:37:08;98413.13;;;11.79;47.39
20971;BME280;10644;48.834;10.088;2023-02-11T16:39:36;98409.72;;;11.79;47.58
20971;BME280;10644;48.834;10.088;2023-02-11T16:42:12;98399.63;;;11.73;47.35
20971;BME280;10644;48.834;10.088;2023-02-11T16:44:58;98412.69;;;11.65;47.53
20971;BME280;10644;48.834;10.088;2023-02-11T16:47:31;98415.88;;;11.44;48.03
20971;BME280;10644;48.834;10.088;2023-02-11T16:50:07;98413.47;;;11.38;48.05
20971;BME280;10644;48.834;10.088;2023-02-11T16:52:41;98427.69;;;11.21;48.30